createdAt,value
2018-09-18T00:00:33.387Z,5.67
2018-09-18T00:03:00.921Z,5.70
2018-09-18T00:05:28.456Z,5.70
2018-09-18T00:07:55.983Z,5.73
2018-09-18T00:10:23.584Z,5.70
2018-09-18T00:12:51.118Z,4.97
2018-09-18T00:15:18.690Z,5.07
2018-09-18T00:17:46.229Z,5.70
2018-09-18T00:20:13.787Z,7.30
2018-09-18T00:22:41.368Z,6.23
2018-09-18T00:25:08.855Z,8.20
2018-09-18T00:27:36.381Z,7.07
2018-09-18T00:30:04.507Z,5.90
2018-09-18T00:32:32.071Z,9.43
2018-09-18T00:34:59.578Z,7.33
2018-09-18T00:37:27.107Z,6.20
2018-09-18T00:39:54.662Z,6.60
2018-09-18T00:42:22.224Z,7.60
2018-09-18T00:44:50.006Z,8.70
2018-09-18T00:47:17.554Z,6.27
2018-09-18T00:49:45.053Z,7.17
2018-09-18T00:52:12.584Z,6.80
2018-09-18T00:54:40.102Z,6.90
2018-09-18T00:57:07.799Z,6.43
2018-09-18T00:59:35.323Z,8.23
2018-09-18T01:02:02.935Z,7.23
2018-09-18T01:04:30.450Z,6.07
2018-09-18T01:06:58.016Z,5.60
2018-09-18T01:09:25.546Z,5.70
2018-09-18T01:11:53.076Z,8.00
2018-09-18T01:14:20.593Z,6.97
2018-09-18T01:16:48.150Z,6.97
2018-09-18T01:19:15.722Z,6.70
2018-09-18T01:21:43.306Z,6.17
2018-09-18T01:24:10.826Z,6.93
2018-09-18T01:26:38.347Z,7.00
2018-09-18T01:29:05.917Z,9.20
2018-09-18T01:31:33.438Z,6.17
2018-09-18T01:34:00.949Z,7.40
2018-09-18T01:36:28.547Z,6.63
2018-09-18T01:38:56.103Z,6.83
2018-09-18T01:41:23.607Z,6.50
2018-09-18T01:43:51.209Z,6.87
2018-09-18T01:46:18.639Z,6.23
2018-09-18T01:48:46.137Z,6.77
2018-09-18T01:51:13.678Z,6.60
2018-09-18T01:53:41.218Z,9.43
2018-09-18T01:56:08.725Z,6.80
2018-09-18T01:58:36.283Z,7.83
2018-09-18T02:01:03.793Z,6.30
2018-09-18T02:03:31.383Z,6.10
2018-09-18T02:05:58.913Z,6.97
2018-09-18T02:08:26.443Z,6.07
2018-09-18T02:10:54.050Z,6.37
2018-09-18T02:13:21.565Z,7.70
2018-09-18T02:15:49.129Z,9.70
2018-09-18T02:18:16.924Z,5.57
2018-09-18T02:20:44.450Z,7.83
2018-09-18T02:23:11.960Z,7.43
2018-09-18T02:25:39.536Z,7.07
2018-09-18T02:28:07.111Z,7.40
2018-09-18T02:30:34.632Z,6.90
2018-09-18T02:33:02.176Z,7.27
2018-09-18T02:35:29.782Z,7.47
2018-09-18T02:37:57.296Z,7.57
2018-09-18T02:40:24.836Z,7.90
2018-09-18T02:42:52.433Z,7.70
2018-09-18T02:45:19.949Z,7.90
2018-09-18T02:47:47.455Z,7.43
2018-09-18T02:50:15.087Z,8.00
2018-09-18T02:52:42.623Z,7.53
2018-09-18T02:55:10.185Z,8.00
2018-09-18T02:57:37.658Z,8.23
2018-09-18T03:00:05.538Z,7.73
2018-09-18T03:02:33.053Z,6.53
2018-09-18T03:05:00.637Z,7.50
2018-09-18T03:07:28.165Z,7.80
2018-09-18T03:09:55.689Z,7.90
2018-09-18T03:12:23.164Z,7.03
2018-09-18T03:14:50.731Z,8.30
2018-09-18T03:17:18.260Z,7.43
2018-09-18T03:19:45.770Z,7.30
2018-09-18T03:22:13.270Z,6.80
2018-09-18T03:24:40.831Z,7.33
2018-09-18T03:27:08.362Z,7.67
2018-09-18T03:29:35.940Z,7.03
2018-09-18T03:32:03.546Z,7.30
2018-09-18T03:34:31.086Z,7.73
2018-09-18T03:36:58.651Z,7.90
2018-09-18T03:39:26.200Z,8.23
2018-09-18T03:41:54.360Z,9.70
2018-09-18T03:44:21.847Z,7.93
2018-09-18T03:46:49.405Z,8.63
2018-09-18T03:49:16.929Z,10.83
2018-09-18T03:51:44.426Z,8.73
2018-09-18T03:54:12.017Z,9.47
2018-09-18T03:56:39.575Z,7.83
2018-09-18T03:59:07.114Z,8.67
2018-09-18T04:01:34.670Z,9.17
2018-09-18T04:04:02.218Z,9.37
2018-09-18T04:06:29.945Z,8.43
2018-09-18T04:08:57.472Z,9.40
2018-09-18T04:11:25.109Z,9.30
2018-09-18T04:13:52.756Z,7.33
2018-09-18T04:16:20.334Z,7.07
2018-09-18T04:18:47.810Z,7.80
2018-09-18T04:21:15.352Z,7.40
2018-09-18T04:23:42.916Z,8.50
2018-09-18T04:26:10.457Z,9.93
2018-09-18T04:28:38.021Z,8.10
2018-09-18T04:31:05.601Z,8.43
2018-09-18T04:33:33.145Z,8.33
2018-09-18T04:36:00.654Z,14.30
2018-09-18T04:38:28.227Z,8.93
2018-09-18T04:40:55.718Z,9.00
2018-09-18T04:43:23.289Z,8.60
2018-09-18T04:45:50.933Z,8.70
2018-09-18T04:48:18.525Z,9.07
2018-09-18T04:50:46.117Z,11.73
2018-09-18T04:53:13.648Z,8.87
2018-09-18T04:55:41.245Z,9.33
2018-09-18T04:58:08.881Z,8.83
2018-09-18T05:00:36.408Z,8.53
2018-09-18T05:03:03.967Z,10.07
2018-09-18T05:05:31.499Z,10.40
2018-09-18T05:07:59.041Z,9.13
2018-09-18T05:10:26.586Z,12.83
2018-09-18T05:12:54.213Z,9.57
2018-09-18T05:15:21.762Z,11.30
2018-09-18T05:17:49.330Z,9.60
2018-09-18T05:20:16.905Z,10.80
2018-09-18T05:22:44.627Z,12.10
2018-09-18T05:25:12.203Z,12.17
2018-09-18T05:27:39.719Z,10.73
2018-09-18T05:30:07.595Z,10.83
2018-09-18T05:32:35.224Z,17.33
2018-09-18T05:35:02.841Z,10.97
2018-09-18T05:37:30.397Z,10.83
2018-09-18T05:39:57.963Z,11.10
2018-09-18T05:42:25.521Z,13.30
2018-09-18T05:44:53.160Z,14.60
2018-09-18T05:47:20.773Z,11.77
2018-09-18T05:49:48.439Z,13.87
2018-09-18T05:52:15.983Z,13.47
2018-09-18T05:54:43.558Z,12.93
2018-09-18T05:57:11.287Z,12.20
2018-09-18T05:59:38.883Z,11.43
2018-09-18T06:02:06.525Z,12.07
2018-09-18T06:04:34.104Z,12.63
2018-09-18T06:07:01.700Z,12.33
2018-09-18T06:09:29.291Z,13.00
2018-09-18T06:11:56.984Z,12.50
2018-09-18T06:14:24.517Z,12.00
2018-09-18T06:16:52.036Z,13.70
2018-09-18T06:19:19.720Z,13.47
2018-09-18T06:21:47.204Z,13.70
2018-09-18T06:24:14.791Z,12.53
2018-09-18T06:26:42.307Z,12.83
2018-09-18T06:29:10.493Z,14.70
2018-09-18T06:31:38.081Z,13.70
2018-09-18T06:34:05.567Z,12.47
2018-09-18T06:36:33.190Z,13.90
2018-09-18T06:39:00.724Z,14.77
2018-09-18T06:41:31.283Z,13.90
2018-09-18T06:43:58.963Z,14.87
2018-09-18T06:46:26.491Z,14.53
2018-09-18T06:48:54.000Z,13.47
2018-09-18T06:51:21.555Z,14.47
2018-09-18T06:53:49.092Z,13.80
2018-09-18T06:56:16.631Z,13.80
2018-09-18T06:58:44.166Z,14.53
2018-09-18T07:01:11.784Z,15.53
2018-09-18T07:03:39.334Z,14.47
2018-09-18T07:06:07.028Z,13.27
2018-09-18T07:08:34.577Z,15.70
2018-09-18T07:11:02.821Z,15.00
2018-09-18T07:13:30.406Z,15.53
2018-09-18T07:15:57.983Z,14.57
2018-09-18T07:18:25.584Z,15.27
2018-09-18T07:20:53.138Z,14.50
2018-09-18T07:23:20.772Z,15.13
2018-09-18T07:25:48.368Z,15.03
2018-09-18T07:28:15.945Z,16.60
2018-09-18T07:30:43.600Z,15.43
2018-09-18T07:33:11.248Z,16.10
2018-09-18T07:35:38.746Z,16.43
2018-09-18T07:38:06.266Z,17.63
2018-09-18T07:40:33.772Z,16.43
2018-09-18T07:43:01.297Z,18.87
2018-09-18T07:45:28.876Z,17.53
2018-09-18T07:47:56.467Z,17.13
2018-09-18T07:50:24.005Z,16.50
2018-09-18T07:52:51.549Z,17.90
2018-09-18T07:55:19.122Z,17.23
2018-09-18T07:57:46.687Z,17.20
2018-09-18T08:00:14.224Z,17.40
2018-09-18T08:02:41.779Z,17.13
2018-09-18T08:05:09.445Z,15.30
2018-09-18T08:07:37.003Z,16.37
2018-09-18T08:10:05.286Z,17.17
2018-09-18T08:12:32.847Z,16.53
2018-09-18T08:15:00.424Z,23.57
2018-09-18T08:17:27.979Z,17.60
2018-09-18T08:19:56.068Z,17.10
2018-09-18T08:22:23.611Z,16.30
2018-09-18T08:24:51.149Z,18.40
2018-09-18T08:27:18.683Z,17.53
2018-09-18T08:29:46.248Z,16.80
2018-09-18T08:32:13.812Z,16.50
2018-09-18T08:34:41.425Z,17.63
2018-09-18T08:37:09.045Z,15.30
2018-09-18T08:39:36.702Z,17.50
2018-09-18T08:42:04.387Z,18.07
2018-09-18T08:44:31.975Z,18.37
2018-09-18T08:46:59.535Z,17.33
2018-09-18T08:49:27.085Z,17.10
2018-09-18T08:51:54.780Z,18.30
2018-09-18T08:54:22.343Z,18.73
2018-09-18T08:56:49.917Z,17.50
2018-09-18T08:59:17.510Z,15.70
2018-09-18T09:01:45.033Z,17.97
2018-09-18T09:04:12.626Z,17.17
2018-09-18T09:06:40.994Z,16.13
2018-09-18T09:09:10.268Z,17.10
2018-09-18T09:11:37.881Z,18.77
2018-09-18T09:14:05.524Z,17.63
2018-09-18T09:16:33.258Z,17.30
2018-09-18T09:19:01.238Z,18.90
2018-09-18T09:21:28.846Z,16.50
2018-09-18T09:23:56.390Z,15.50
2018-09-18T09:26:24.013Z,15.63
2018-09-18T09:28:51.487Z,15.40
2018-09-18T09:31:19.062Z,16.83
2018-09-18T09:33:46.665Z,16.80
2018-09-18T09:36:14.275Z,16.23
2018-09-18T09:38:41.890Z,16.90
2018-09-18T09:41:09.463Z,16.23
2018-09-18T09:43:37.081Z,15.43
2018-09-18T09:46:04.773Z,16.23
2018-09-18T09:48:34.109Z,16.30
2018-09-18T09:51:02.577Z,16.03
2018-09-18T09:53:30.067Z,16.27
2018-09-18T09:55:57.617Z,15.20
2018-09-18T09:58:25.253Z,15.40
2018-09-18T10:00:58.441Z,14.27
2018-09-18T10:03:25.985Z,14.20
2018-09-18T10:05:53.516Z,13.37
2018-09-18T10:08:21.057Z,13.10
2018-09-18T10:10:48.737Z,12.47
2018-09-18T10:13:16.180Z,12.73
2018-09-18T10:15:43.709Z,13.57
2018-09-18T10:18:11.357Z,13.70
2018-09-18T10:20:38.825Z,13.23
2018-09-18T10:23:06.399Z,12.10
2018-09-18T10:25:33.971Z,10.93
2018-09-18T10:28:02.116Z,11.83
2018-09-18T10:30:29.652Z,11.87
2018-09-18T10:32:57.257Z,10.03
2018-09-18T10:35:24.874Z,10.80
2018-09-18T10:37:52.441Z,9.70
2018-09-18T10:40:19.948Z,9.93
2018-09-18T10:42:47.579Z,10.20
2018-09-18T10:45:15.103Z,9.70
2018-09-18T10:47:42.687Z,9.03
2018-09-18T10:50:10.214Z,9.33
2018-09-18T10:52:37.874Z,8.47
2018-09-18T10:55:06.147Z,10.20
2018-09-18T10:57:33.701Z,9.37
2018-09-18T11:00:01.248Z,7.80
2018-09-18T11:02:28.797Z,9.17
2018-09-18T11:04:56.325Z,9.30
2018-09-18T11:07:23.899Z,8.27
2018-09-18T11:09:51.487Z,8.80
2018-09-18T11:12:19.067Z,8.37
2018-09-18T11:14:46.586Z,8.10
2018-09-18T11:17:14.206Z,8.33
2018-09-18T11:19:41.913Z,7.87
2018-09-18T11:22:09.485Z,7.27
2018-09-18T11:24:37.021Z,7.30
2018-09-18T11:27:04.613Z,8.30
2018-09-18T11:29:32.279Z,7.43
2018-09-18T11:31:59.811Z,9.00
2018-09-18T11:34:27.344Z,6.50
2018-09-18T11:36:55.538Z,7.63
2018-09-18T11:39:23.088Z,6.30
2018-09-18T11:41:50.639Z,5.77
2018-09-18T11:44:25.139Z,6.10
2018-09-18T11:46:52.711Z,6.67
2018-09-18T11:49:20.868Z,5.87
2018-09-18T11:51:48.515Z,6.73
2018-09-18T11:54:16.128Z,6.17
2018-09-18T11:56:43.820Z,5.90
2018-09-18T11:59:11.360Z,7.00
2018-09-18T12:01:38.923Z,5.97
2018-09-18T12:04:06.532Z,6.10
2018-09-18T12:06:34.105Z,5.50
2018-09-18T12:09:01.882Z,5.67
2018-09-18T12:11:29.469Z,6.30
2018-09-18T12:13:56.987Z,5.63
2018-09-18T12:16:24.611Z,6.20
2018-09-18T12:18:52.271Z,5.70
2018-09-18T12:21:19.852Z,6.60
2018-09-18T12:23:47.417Z,7.07
2018-09-18T12:26:14.994Z,6.80
2018-09-18T12:28:42.562Z,6.93
2018-09-18T12:31:10.110Z,6.40
2018-09-18T12:33:37.682Z,6.40
2018-09-18T12:36:05.999Z,6.70
2018-09-18T12:38:33.715Z,6.97
2018-09-18T12:41:01.363Z,6.70
2018-09-18T12:43:29.039Z,6.90
2018-09-18T12:45:56.753Z,8.60
2018-09-18T12:48:24.365Z,8.20
2018-09-18T12:50:52.033Z,7.37
2018-09-18T12:53:19.699Z,7.13
2018-09-18T12:55:47.313Z,7.40
2018-09-18T12:58:14.991Z,6.50
2018-09-18T13:00:42.574Z,6.40
2018-09-18T13:03:10.939Z,7.40
2018-09-18T13:05:38.570Z,5.90
2018-09-18T13:08:06.888Z,6.90
2018-09-18T13:10:34.385Z,6.73
2018-09-18T13:13:02.057Z,7.00
2018-09-18T13:15:29.676Z,6.20
2018-09-18T13:17:57.345Z,7.23
2018-09-18T13:20:24.935Z,6.93
2018-09-18T13:22:52.540Z,6.50
2018-09-18T13:25:20.112Z,6.63
2018-09-18T13:27:47.747Z,6.30
2018-09-18T13:30:16.217Z,6.67
2018-09-18T13:32:43.858Z,8.07
2018-09-18T13:35:12.315Z,7.23
2018-09-18T13:37:39.909Z,6.37
2018-09-18T13:40:07.530Z,7.27
2018-09-18T13:42:35.149Z,8.10
2018-09-18T13:45:02.762Z,7.80
2018-09-18T13:47:30.327Z,6.73
2018-09-18T13:49:57.987Z,6.30
2018-09-18T13:52:26.201Z,9.70
2018-09-18T13:54:53.811Z,6.50
2018-09-18T13:57:21.445Z,6.63
2018-09-18T13:59:49.427Z,6.90
2018-09-18T14:02:17.112Z,6.00
2018-09-18T14:04:44.651Z,6.03
2018-09-18T14:07:12.257Z,5.90
2018-09-18T14:09:39.903Z,6.50
2018-09-18T14:12:07.579Z,5.90
2018-09-18T14:14:35.247Z,5.93
2018-09-18T14:17:02.814Z,6.00
2018-09-18T14:19:30.399Z,6.50
2018-09-18T14:21:57.909Z,6.40
2018-09-18T14:24:25.515Z,6.10
2018-09-18T14:26:53.117Z,6.43
2018-09-18T14:29:20.706Z,5.70
2018-09-18T14:31:48.294Z,6.70
2018-09-18T14:34:15.918Z,5.97
2018-09-18T14:36:43.490Z,7.10
2018-09-18T14:39:11.220Z,6.23
2018-09-18T14:41:39.295Z,6.93
2018-09-18T14:44:07.589Z,6.60
2018-09-18T14:46:35.299Z,6.20
2018-09-18T14:49:03.258Z,5.80
2018-09-18T14:51:30.851Z,6.40
2018-09-18T14:53:58.476Z,7.53
2018-09-18T14:56:26.060Z,7.60
2018-09-18T14:58:53.696Z,8.17
2018-09-18T15:01:21.284Z,8.63
2018-09-18T15:03:48.856Z,7.13
2018-09-18T15:06:16.445Z,7.40
2018-09-18T15:08:44.057Z,8.33
2018-09-18T15:11:11.637Z,7.70
2018-09-18T15:13:39.233Z,7.47
2018-09-18T15:16:06.844Z,8.00
2018-09-18T15:18:34.416Z,8.67
2018-09-18T15:21:01.924Z,7.87
2018-09-18T15:23:29.523Z,8.40
2018-09-18T15:25:57.092Z,8.57
2018-09-18T15:28:24.662Z,8.27
2018-09-18T15:30:52.197Z,8.33
2018-09-18T15:33:19.756Z,7.63
2018-09-18T15:35:47.304Z,9.27
2018-09-18T15:38:14.863Z,8.30
2018-09-18T15:40:42.464Z,7.87
2018-09-18T15:43:10.147Z,7.53
2018-09-18T15:45:37.768Z,9.07
2018-09-18T15:48:05.320Z,9.37
2018-09-18T15:50:32.942Z,9.67
2018-09-18T15:53:00.667Z,8.53
2018-09-18T15:55:28.448Z,8.70
2018-09-18T15:57:56.040Z,9.97
2018-09-18T16:00:23.673Z,8.80
2018-09-18T16:02:51.308Z,8.90
2018-09-18T16:05:18.959Z,9.50
2018-09-18T16:07:46.666Z,7.93
2018-09-18T16:10:14.263Z,9.40
2018-09-18T16:12:41.862Z,9.20
2018-09-18T16:15:09.512Z,8.00
2018-09-18T16:17:37.144Z,10.30
2018-09-18T16:20:04.793Z,8.83
2018-09-18T16:22:32.427Z,9.00
2018-09-18T16:25:00.127Z,8.60
2018-09-18T16:27:27.750Z,8.50
2018-09-18T16:29:55.356Z,10.47
2018-09-18T16:32:22.930Z,7.80
2018-09-18T16:34:50.550Z,7.60
2018-09-18T16:37:18.143Z,8.47
2018-09-18T16:39:45.699Z,8.83
2018-09-18T16:42:13.275Z,8.57
2018-09-18T16:44:40.853Z,8.87
2018-09-18T16:47:08.516Z,9.27
2018-09-18T16:49:36.285Z,7.97
2018-09-18T16:52:03.986Z,8.40
2018-09-18T16:54:31.749Z,8.97
2018-09-18T16:56:59.443Z,8.70
2018-09-18T16:59:27.074Z,9.70
2018-09-18T17:01:54.769Z,9.47
2018-09-18T17:04:22.440Z,8.47
2018-09-18T17:06:50.163Z,10.53
2018-09-18T17:09:17.721Z,9.93
2018-09-18T17:11:45.305Z,9.70
2018-09-18T17:14:12.923Z,9.00
2018-09-18T17:16:40.555Z,9.10
2018-09-18T17:19:08.163Z,11.30
2018-09-18T17:21:35.707Z,10.90
2018-09-18T17:24:03.358Z,10.87
2018-09-18T17:26:30.958Z,10.17
2018-09-18T17:28:58.710Z,10.50
2018-09-18T17:31:26.288Z,10.47
2018-09-18T17:33:53.877Z,10.70
2018-09-18T17:36:21.446Z,10.23
2018-09-18T17:38:49.569Z,10.17
2018-09-18T17:41:17.700Z,11.10
2018-09-18T17:43:45.507Z,10.37
2018-09-18T17:46:13.207Z,10.43
2018-09-18T17:48:40.776Z,11.07
2018-09-18T17:51:08.501Z,10.60
2018-09-18T17:53:36.194Z,11.10
2018-09-18T17:56:03.847Z,10.50
2018-09-18T17:58:31.563Z,10.63
2018-09-18T18:00:59.279Z,10.40
2018-09-18T18:03:26.870Z,11.20
2018-09-18T18:05:54.418Z,10.37
2018-09-18T18:08:22.162Z,10.50
2018-09-18T18:10:49.898Z,10.80
2018-09-18T18:13:17.580Z,11.63
2018-09-18T18:15:45.297Z,11.10
2018-09-18T18:18:12.930Z,11.70
2018-09-18T18:20:40.740Z,11.87
2018-09-18T18:23:08.435Z,11.40
2018-09-18T18:25:36.153Z,11.23
2018-09-18T18:28:04.077Z,11.77
2018-09-18T18:30:32.547Z,11.97
2018-09-18T18:33:00.156Z,13.03
2018-09-18T18:35:27.791Z,12.20
2018-09-18T18:37:55.536Z,13.17
2018-09-18T18:40:23.279Z,12.20
2018-09-18T18:42:50.902Z,13.03
2018-09-18T18:45:18.599Z,12.97
2018-09-18T18:47:46.377Z,11.80
2018-09-18T18:50:14.170Z,12.93
2018-09-18T18:52:41.881Z,12.77
2018-09-18T18:55:09.521Z,11.63
2018-09-18T18:57:37.184Z,12.63
2018-09-18T19:00:04.900Z,11.57
2018-09-18T19:02:32.581Z,10.67
2018-09-18T19:05:00.349Z,8.17
2018-09-18T19:10:02.857Z,7.27
2018-09-18T19:12:30.655Z,4.60
2018-09-18T19:14:58.449Z,4.07
2018-09-18T19:17:26.163Z,4.00
2018-09-18T19:19:53.871Z,3.80
2018-09-18T19:22:22.255Z,3.50
2018-09-18T19:24:49.929Z,2.53
2018-09-18T19:27:17.740Z,2.83
2018-09-18T19:29:45.570Z,3.70
2018-09-18T19:32:13.317Z,3.30
2018-09-18T19:34:40.977Z,2.80
2018-09-18T19:37:08.797Z,2.53
2018-09-18T19:39:36.459Z,3.00
2018-09-18T19:42:04.224Z,4.17
2018-09-18T19:44:31.969Z,4.00
2018-09-18T19:46:59.733Z,3.03
2018-09-18T19:49:27.445Z,3.97
2018-09-18T19:51:55.193Z,3.50
2018-09-18T19:54:22.996Z,3.90
2018-09-18T19:56:50.601Z,3.83
2018-09-18T19:59:18.354Z,3.50
2018-09-18T20:01:46.093Z,3.93
2018-09-18T20:04:13.685Z,3.67
2018-09-18T20:06:41.390Z,4.40
2018-09-18T20:09:10.774Z,4.37
2018-09-18T20:11:38.547Z,4.77
2018-09-18T20:14:06.255Z,4.37
2018-09-18T20:16:33.973Z,4.40
2018-09-18T20:19:01.848Z,4.37
2018-09-18T20:21:29.525Z,5.30
2018-09-18T20:23:57.438Z,4.37
2018-09-18T20:26:25.093Z,4.43
2018-09-18T20:28:52.713Z,4.47
2018-09-18T20:31:20.417Z,4.83
2018-09-18T20:33:48.492Z,4.10
2018-09-18T20:36:16.417Z,4.57
2018-09-18T20:38:43.862Z,4.93
2018-09-18T20:41:11.569Z,4.90
2018-09-18T20:43:39.264Z,4.30
2018-09-18T20:46:06.908Z,4.77
2018-09-18T20:48:34.574Z,4.00
2018-09-18T20:51:02.185Z,4.13
2018-09-18T20:53:29.752Z,5.30
2018-09-18T20:55:57.470Z,4.77
2018-09-18T20:58:25.157Z,5.33
2018-09-18T21:00:52.890Z,5.30
2018-09-18T21:03:20.531Z,4.80
2018-09-18T21:05:48.549Z,5.27
2018-09-18T21:08:16.174Z,5.37
2018-09-18T21:10:43.785Z,5.87
2018-09-18T21:13:11.340Z,5.83
2018-09-18T21:15:39.006Z,6.20
2018-09-18T21:18:06.617Z,6.07
2018-09-18T21:20:34.194Z,6.10
2018-09-18T21:23:01.742Z,5.50
2018-09-18T21:25:37.265Z,6.03
2018-09-18T21:28:04.847Z,6.27
2018-09-18T21:30:32.405Z,6.30
2018-09-18T21:33:00.012Z,5.73
2018-09-18T21:35:27.601Z,5.57
2018-09-18T21:37:55.080Z,5.67
2018-09-18T21:40:22.706Z,6.13
2018-09-18T21:42:50.172Z,5.90
2018-09-18T21:45:17.652Z,6.30
2018-09-18T21:47:45.222Z,6.07
2018-09-18T21:50:12.776Z,6.17
2018-09-18T21:52:40.254Z,6.30
2018-09-18T21:55:07.818Z,5.87
2018-09-18T21:57:35.420Z,6.27
2018-09-18T22:00:03.059Z,6.67
2018-09-18T22:02:30.600Z,6.93
2018-09-18T22:04:58.120Z,6.10
2018-09-18T22:07:25.612Z,5.97
2018-09-18T22:09:53.154Z,6.17
2018-09-18T22:12:20.753Z,5.47
2018-09-18T22:14:48.258Z,5.90
2018-09-18T22:17:15.775Z,6.47
2018-09-18T22:19:43.283Z,6.30
2018-09-18T22:22:10.831Z,6.80
2018-09-18T22:24:38.313Z,6.70
2018-09-18T22:27:05.820Z,7.83
2018-09-18T22:29:33.335Z,8.53
2018-09-18T22:32:00.877Z,7.67
2018-09-18T22:34:28.391Z,7.23
2018-09-18T22:36:55.900Z,7.70
2018-09-18T22:39:23.409Z,7.60
2018-09-18T22:41:50.912Z,8.23
2018-09-18T22:44:18.400Z,7.90
2018-09-18T22:46:45.890Z,8.97
2018-09-18T22:49:13.444Z,8.30
2018-09-18T22:51:40.930Z,10.40
2018-09-18T22:54:08.408Z,9.60
2018-09-18T22:56:35.924Z,9.03
2018-09-18T22:59:03.433Z,8.70
2018-09-18T23:01:30.918Z,7.63
2018-09-18T23:03:58.425Z,7.20
2018-09-18T23:06:25.998Z,8.17
2018-09-18T23:08:53.552Z,7.93
2018-09-18T23:11:21.088Z,8.53
2018-09-18T23:13:48.603Z,7.60
2018-09-18T23:16:16.141Z,7.80
2018-09-18T23:18:43.756Z,7.90
2018-09-18T23:21:11.296Z,8.00
2018-09-18T23:23:38.811Z,8.07
2018-09-18T23:26:06.645Z,9.20
2018-09-18T23:28:34.163Z,8.30
2018-09-18T23:31:01.676Z,8.83
2018-09-18T23:33:29.214Z,9.77
2018-09-18T23:35:56.734Z,8.47
2018-09-18T23:38:24.316Z,8.80
2018-09-18T23:40:51.836Z,7.63
2018-09-18T23:43:19.371Z,8.17
2018-09-18T23:45:46.940Z,8.77
2018-09-18T23:48:14.532Z,9.87
2018-09-18T23:50:42.108Z,9.80
2018-09-18T23:53:09.636Z,8.20
2018-09-18T23:55:37.175Z,8.37
2018-09-18T23:58:04.929Z,9.83
